KDBN

W H 'bud' Barron Airport

Dublin, Georgia, USA
METAR KDBN 230455Z AUTO 00000KT 10SM CLR 11/11 A3024 RMK AO2
Observed Flight Rules
Oct-23 @ 04:55 UTC (23 minutes ago) Visual Flight Rules
Visibility Clouds
10 miles
  • Clear skies
Temperatures Readings
Current 11°C / 52°F
Dewpoint 11°C / 52°F
Humidity 100%
Altimeter 30.24" Hg
Pressure 1024 hPa
Elevation 94
METAR KDBN 230455Z AUTO 00000KT 10SM CLR 11/11 A3024 RMK AO2
Observed Flight Rules
Oct-23 @ 04:55 UTC
(23 minutes ago)
VFR
Clouds
  • Clear skies
Temperature Dewpoint
11°C / 52°F 11°C / 52°F
Humidity Altimeter Pressure
100% 30.24" Hg 1024 hPa